sensor_id;sensor_type;location;lat;lon;timestamp;pressure;altitude;pressure_sealevel;temperature;humidity
74615;BME280;63121;51.458;-0.110;2022-12-29T00:02:12;99365.06;;;12.37;65.37
74615;BME280;63121;51.458;-0.110;2022-12-29T00:04:38;99391.72;;;12.39;65.32
74615;BME280;63121;51.458;-0.110;2022-12-29T00:07:04;99385.19;;;12.53;65.39
74615;BME280;63121;51.458;-0.110;2022-12-29T00:09:30;99381.50;;;12.36;65.02
74615;BME280;63121;51.458;-0.110;2022-12-29T00:11:56;99378.44;;;12.49;65.13
74615;BME280;63121;51.458;-0.110;2022-12-29T00:14:22;99380.16;;;12.70;64.16
74615;BME280;63121;51.458;-0.110;2022-12-29T00:17:05;99374.72;;;12.34;65.09
74615;BME280;63121;51.458;-0.110;2022-12-29T00:19:31;99368.03;;;12.50;64.15
74615;BME280;63121;51.458;-0.110;2022-12-29T00:22:15;99372.28;;;12.73;63.31
74615;BME280;63121;51.458;-0.110;2022-12-29T00:24:59;99364.09;;;12.62;64.00
74615;BME280;63121;51.458;-0.110;2022-12-29T00:27:31;99365.25;;;12.33;64.40
74615;BME280;63121;51.458;-0.110;2022-12-29T00:30:18;99356.56;;;12.35;64.60
74615;BME280;63121;51.458;-0.110;2022-12-29T00:33:14;99369.00;;;12.26;64.64
74615;BME280;63121;51.458;-0.110;2022-12-29T00:36:01;99359.53;;;12.47;64.35
74615;BME280;63121;51.458;-0.110;2022-12-29T00:38:28;99367.59;;;12.18;64.83
74615;BME280;63121;51.458;-0.110;2022-12-29T00:41:13;99370.03;;;12.22;65.15
74615;BME280;63121;51.458;-0.110;2022-12-29T00:43:57;99364.59;;;12.50;64.66
74615;BME280;63121;51.458;-0.110;2022-12-29T00:46:32;99365.84;;;12.39;64.74
74615;BME280;63121;51.458;-0.110;2022-12-29T00:48:58;99358.13;;;11.95;65.95
74615;BME280;63121;51.458;-0.110;2022-12-29T00:51:42;99363.28;;;12.17;65.34
74615;BME280;63121;51.458;-0.110;2022-12-29T00:54:07;99363.88;;;12.24;65.70
74615;BME280;63121;51.458;-0.110;2022-12-29T00:56:33;99361.84;;;12.32;65.25
74615;BME280;63121;51.458;-0.110;2022-12-29T00:59:06;99357.16;;;12.42;65.16
74615;BME280;63121;51.458;-0.110;2022-12-29T01:01:32;99362.09;;;12.26;65.32
74615;BME280;63121;51.458;-0.110;2022-12-29T01:03:57;99368.72;;;12.11;65.24
74615;BME280;63121;51.458;-0.110;2022-12-29T01:06:23;99360.75;;;12.16;64.98
74615;BME280;63121;51.458;-0.110;2022-12-29T01:08:48;99368.13;;;11.81;65.20
74615;BME280;63121;51.458;-0.110;2022-12-29T01:11:33;99370.28;;;11.93;64.50
74615;BME280;63121;51.458;-0.110;2022-12-29T01:13:59;99376.28;;;12.16;63.43
74615;BME280;63121;51.458;-0.110;2022-12-29T01:16:24;99369.59;;;11.88;63.27
74615;BME280;63121;51.458;-0.110;2022-12-29T01:18:49;99378.75;;;12.19;62.73
74615;BME280;63121;51.458;-0.110;2022-12-29T01:21:15;99362.94;;;12.05;62.60
74615;BME280;63121;51.458;-0.110;2022-12-29T01:23:40;99346.50;;;12.06;61.87
74615;BME280;63121;51.458;-0.110;2022-12-29T01:26:13;99343.53;;;12.37;60.92
74615;BME280;63121;51.458;-0.110;2022-12-29T01:28:39;99341.09;;;12.12;60.82
74615;BME280;63121;51.458;-0.110;2022-12-29T01:31:05;99347.75;;;12.39;60.56
74615;BME280;63121;51.458;-0.110;2022-12-29T01:33:31;99336.31;;;12.45;60.36
74615;BME280;63121;51.458;-0.110;2022-12-29T01:36:01;99355.25;;;12.88;59.05
74615;BME280;63121;51.458;-0.110;2022-12-29T01:38:26;99350.41;;;12.38;60.48
74615;BME280;63121;51.458;-0.110;2022-12-29T01:40:51;99354.06;;;12.75;59.30
74615;BME280;63121;51.458;-0.110;2022-12-29T01:43:17;99360.91;;;12.55;59.78
74615;BME280;63121;51.458;-0.110;2022-12-29T01:45:48;99372.53;;;12.45;59.79
74615;BME280;63121;51.458;-0.110;2022-12-29T01:48:17;99374.56;;;12.79;59.66
74615;BME280;63121;51.458;-0.110;2022-12-29T01:50:50;99370.03;;;12.22;60.79
74615;BME280;63121;51.458;-0.110;2022-12-29T01:53:27;99371.25;;;12.13;60.68
74615;BME280;63121;51.458;-0.110;2022-12-29T01:55:59;99374.72;;;11.90;61.41
74615;BME280;63121;51.458;-0.110;2022-12-29T01:58:30;99371.91;;;11.96;61.29
74615;BME280;63121;51.458;-0.110;2022-12-29T02:00:57;99376.56;;;11.85;60.80
74615;BME280;63121;51.458;-0.110;2022-12-29T02:03:23;99382.41;;;11.91;61.08
74615;BME280;63121;51.458;-0.110;2022-12-29T02:08:29;99371.22;;;11.91;60.36
74615;BME280;63121;51.458;-0.110;2022-12-29T02:10:59;99358.44;;;11.86;60.07
74615;BME280;63121;51.458;-0.110;2022-12-29T02:13:29;99372.72;;;11.73;60.57
74615;BME280;63121;51.458;-0.110;2022-12-29T02:30:04;99359.00;;;11.94;59.34
74615;BME280;63121;51.458;-0.110;2022-12-29T02:35:16;99381.44;;;12.16;59.77
74615;BME280;63121;51.458;-0.110;2022-12-29T02:40:43;99375.50;;;11.68;61.82
74615;BME280;63121;51.458;-0.110;2022-12-29T02:43:23;99375.25;;;11.98;61.22
74615;BME280;63121;51.458;-0.110;2022-12-29T02:45:56;99375.97;;;12.02;61.42
74615;BME280;63121;51.458;-0.110;2022-12-29T02:48:33;99376.91;;;11.53;62.57
74615;BME280;63121;51.458;-0.110;2022-12-29T02:51:04;99353.50;;;11.80;62.15
74615;BME280;63121;51.458;-0.110;2022-12-29T02:53:33;99352.59;;;12.05;61.21
74615;BME280;63121;51.458;-0.110;2022-12-29T02:56:18;99349.44;;;11.96;61.36
74615;BME280;63121;51.458;-0.110;2022-12-29T02:58:44;99345.72;;;12.04;61.27
74615;BME280;63121;51.458;-0.110;2022-12-29T03:15:34;99378.91;;;11.92;61.17
74615;BME280;63121;51.458;-0.110;2022-12-29T03:18:23;99385.66;;;12.40;59.66
74615;BME280;63121;51.458;-0.110;2022-12-29T03:21:12;99387.53;;;12.59;59.43
74615;BME280;63121;51.458;-0.110;2022-12-29T03:23:41;99374.06;;;12.29;59.43
74615;BME280;63121;51.458;-0.110;2022-12-29T03:26:10;99374.88;;;12.51;59.06
74615;BME280;63121;51.458;-0.110;2022-12-29T03:28:47;99370.47;;;12.53;58.89
74615;BME280;63121;51.458;-0.110;2022-12-29T03:31:15;99368.72;;;12.54;58.29
74615;BME280;63121;51.458;-0.110;2022-12-29T03:33:43;99377.75;;;13.07;57.33
74615;BME280;63121;51.458;-0.110;2022-12-29T03:36:13;99377.38;;;12.32;58.90
74615;BME280;63121;51.458;-0.110;2022-12-29T03:38:47;99366.22;;;12.30;58.56
74615;BME280;63121;51.458;-0.110;2022-12-29T03:41:18;99365.38;;;12.72;57.93
74615;BME280;63121;51.458;-0.110;2022-12-29T03:43:46;99366.56;;;12.65;58.03
74615;BME280;63121;51.458;-0.110;2022-12-29T03:46:11;99372.28;;;12.51;58.56
74615;BME280;63121;51.458;-0.110;2022-12-29T03:48:36;99362.19;;;12.45;59.29
74615;BME280;63121;51.458;-0.110;2022-12-29T03:51:02;99375.34;;;12.81;58.32
74615;BME280;63121;51.458;-0.110;2022-12-29T03:53:27;99375.19;;;12.86;58.03
74615;BME280;63121;51.458;-0.110;2022-12-29T03:55:52;99363.44;;;12.77;59.22
74615;BME280;63121;51.458;-0.110;2022-12-29T03:58:18;99368.72;;;12.54;59.62
74615;BME280;63121;51.458;-0.110;2022-12-29T04:00:43;99357.28;;;12.59;59.24
74615;BME280;63121;51.458;-0.110;2022-12-29T04:03:08;99352.31;;;12.75;58.99
74615;BME280;63121;51.458;-0.110;2022-12-29T04:05:34;99355.19;;;12.47;60.12
74615;BME280;63121;51.458;-0.110;2022-12-29T04:07:59;99347.28;;;12.93;59.16
74615;BME280;63121;51.458;-0.110;2022-12-29T04:10:25;99362.03;;;12.91;59.28
74615;BME280;63121;51.458;-0.110;2022-12-29T04:12:50;99375.66;;;12.53;61.57
74615;BME280;63121;51.458;-0.110;2022-12-29T04:15:15;99360.47;;;12.66;61.88
74615;BME280;63121;51.458;-0.110;2022-12-29T04:17:41;99358.88;;;12.41;62.06
74615;BME280;63121;51.458;-0.110;2022-12-29T04:20:06;99356.00;;;12.70;61.41
74615;BME280;63121;51.458;-0.110;2022-12-29T04:23:06;99373.69;;;12.80;61.81
74615;BME280;63121;51.458;-0.110;2022-12-29T04:25:33;99378.00;;;12.37;65.05
74615;BME280;63121;51.458;-0.110;2022-12-29T04:27:58;99381.13;;;12.46;66.04
74615;BME280;63121;51.458;-0.110;2022-12-29T04:30:23;99382.41;;;11.91;66.76
74615;BME280;63121;51.458;-0.110;2022-12-29T04:32:49;99394.69;;;11.85;67.43
74615;BME280;63121;51.458;-0.110;2022-12-29T04:35:14;99389.69;;;12.04;67.54
74615;BME280;63121;51.458;-0.110;2022-12-29T04:37:40;99378.09;;;11.92;68.45
74615;BME280;63121;51.458;-0.110;2022-12-29T04:40:06;99377.84;;;12.42;67.58
74615;BME280;63121;51.458;-0.110;2022-12-29T04:42:31;99381.94;;;12.04;68.00
74615;BME280;63121;51.458;-0.110;2022-12-29T04:44:57;99384.28;;;12.10;67.82
74615;BME280;63121;51.458;-0.110;2022-12-29T04:47:22;99383.44;;;12.09;66.88
74615;BME280;63121;51.458;-0.110;2022-12-29T04:49:47;99380.75;;;12.12;67.17
74615;BME280;63121;51.458;-0.110;2022-12-29T04:52:13;99390.28;;;11.87;67.35
74615;BME280;63121;51.458;-0.110;2022-12-29T04:54:38;99394.84;;;12.27;66.79
74615;BME280;63121;51.458;-0.110;2022-12-29T04:57:04;99397.34;;;12.07;67.30
74615;BME280;63121;51.458;-0.110;2022-12-29T04:59:30;99399.75;;;12.11;67.33
74615;BME280;63121;51.458;-0.110;2022-12-29T05:01:55;99395.97;;;12.42;66.55
74615;BME280;63121;51.458;-0.110;2022-12-29T05:04:20;99402.75;;;12.45;65.78
74615;BME280;63121;51.458;-0.110;2022-12-29T05:06:46;99407.44;;;12.35;65.87
74615;BME280;63121;51.458;-0.110;2022-12-29T05:09:11;99400.56;;;12.56;65.78
74615;BME280;63121;51.458;-0.110;2022-12-29T05:11:36;99412.50;;;12.16;66.56
74615;BME280;63121;51.458;-0.110;2022-12-29T05:14:02;99427.31;;;12.34;65.95
74615;BME280;63121;51.458;-0.110;2022-12-29T05:16:27;99421.03;;;12.62;65.60
74615;BME280;63121;51.458;-0.110;2022-12-29T05:18:52;99423.75;;;12.37;66.46
74615;BME280;63121;51.458;-0.110;2022-12-29T05:21:18;99442.69;;;12.37;66.05
74615;BME280;63121;51.458;-0.110;2022-12-29T05:23:43;99450.38;;;12.18;66.94
74615;BME280;63121;51.458;-0.110;2022-12-29T05:26:08;99461.03;;;12.55;66.07
74615;BME280;63121;51.458;-0.110;2022-12-29T05:28:33;99480.28;;;12.48;66.57
74615;BME280;63121;51.458;-0.110;2022-12-29T05:30:59;99471.25;;;12.58;66.07
74615;BME280;63121;51.458;-0.110;2022-12-29T05:33:24;99475.03;;;12.27;66.60
74615;BME280;63121;51.458;-0.110;2022-12-29T05:35:51;99486.41;;;11.99;67.43
74615;BME280;63121;51.458;-0.110;2022-12-29T05:38:16;99493.53;;;12.40;66.60
74615;BME280;63121;51.458;-0.110;2022-12-29T05:40:42;99513.38;;;12.39;66.30
74615;BME280;63121;51.458;-0.110;2022-12-29T05:43:08;99508.84;;;11.99;67.15
74615;BME280;63121;51.458;-0.110;2022-12-29T05:45:33;99519.63;;;12.34;66.05
74615;BME280;63121;51.458;-0.110;2022-12-29T05:47:58;99533.28;;;12.37;66.08
74615;BME280;63121;51.458;-0.110;2022-12-29T05:50:24;99533.75;;;12.25;66.21
74615;BME280;63121;51.458;-0.110;2022-12-29T05:52:49;99545.03;;;12.23;66.33
74615;BME280;63121;51.458;-0.110;2022-12-29T05:55:14;99556.13;;;12.50;65.62
74615;BME280;63121;51.458;-0.110;2022-12-29T05:57:40;99563.94;;;12.01;65.96
74615;BME280;63121;51.458;-0.110;2022-12-29T06:00:06;99571.88;;;11.70;67.29
74615;BME280;63121;51.458;-0.110;2022-12-29T06:02:31;99577.00;;;11.98;66.43
74615;BME280;63121;51.458;-0.110;2022-12-29T06:04:57;99576.63;;;11.82;66.64
74615;BME280;63121;51.458;-0.110;2022-12-29T06:07:22;99588.84;;;11.78;66.65
74615;BME280;63121;51.458;-0.110;2022-12-29T06:09:47;99594.53;;;12.13;65.49
74615;BME280;63121;51.458;-0.110;2022-12-29T06:12:13;99596.25;;;11.89;65.78
74615;BME280;63121;51.458;-0.110;2022-12-29T06:14:38;99596.97;;;11.93;65.39
74615;BME280;63121;51.458;-0.110;2022-12-29T06:17:03;99599.59;;;11.66;65.18
74615;BME280;63121;51.458;-0.110;2022-12-29T06:19:29;99610.34;;;11.54;64.75
74615;BME280;63121;51.458;-0.110;2022-12-29T06:21:54;99615.38;;;11.84;63.79
74615;BME280;63121;51.458;-0.110;2022-12-29T06:24:20;99616.63;;;11.72;64.29
74615;BME280;63121;51.458;-0.110;2022-12-29T06:26:45;99628.97;;;11.90;63.67
74615;BME280;63121;51.458;-0.110;2022-12-29T06:29:11;99623.09;;;11.85;63.47
74615;BME280;63121;51.458;-0.110;2022-12-29T06:31:38;99619.94;;;11.75;63.44
74615;BME280;63121;51.458;-0.110;2022-12-29T06:34:03;99635.28;;;11.28;64.37
74615;BME280;63121;51.458;-0.110;2022-12-29T06:36:29;99630.16;;;11.27;64.13
74615;BME280;63121;51.458;-0.110;2022-12-29T06:38:54;99642.47;;;11.72;63.30
74615;BME280;63121;51.458;-0.110;2022-12-29T06:41:20;99640.00;;;11.69;62.82
74615;BME280;63121;51.458;-0.110;2022-12-29T06:43:45;99653.09;;;11.36;63.54
74615;BME280;63121;51.458;-0.110;2022-12-29T06:46:11;99667.00;;;11.32;63.76
74615;BME280;63121;51.458;-0.110;2022-12-29T06:48:36;99672.78;;;10.84;65.27
74615;BME280;63121;51.458;-0.110;2022-12-29T06:51:01;99666.81;;;11.38;63.79
74615;BME280;63121;51.458;-0.110;2022-12-29T06:53:27;99686.75;;;11.34;63.69
74615;BME280;63121;51.458;-0.110;2022-12-29T06:55:52;99690.22;;;11.33;63.26
74615;BME280;63121;51.458;-0.110;2022-12-29T06:58:18;99700.59;;;11.60;62.90
74615;BME280;63121;51.458;-0.110;2022-12-29T07:00:43;99705.13;;;11.53;62.89
74615;BME280;63121;51.458;-0.110;2022-12-29T07:03:08;99711.53;;;11.40;62.95
74615;BME280;63121;51.458;-0.110;2022-12-29T07:05:34;99716.34;;;11.52;62.80
74615;BME280;63121;51.458;-0.110;2022-12-29T07:07:59;99714.50;;;10.98;63.83
74615;BME280;63121;51.458;-0.110;2022-12-29T07:10:25;99728.00;;;11.08;64.04
74615;BME280;63121;51.458;-0.110;2022-12-29T07:12:50;99729.16;;;10.97;64.15
74615;BME280;63121;51.458;-0.110;2022-12-29T07:15:16;99726.94;;;11.15;63.00
74615;BME280;63121;51.458;-0.110;2022-12-29T07:17:41;99740.41;;;11.54;61.92
74615;BME280;63121;51.458;-0.110;2022-12-29T07:20:07;99737.84;;;11.53;62.03
74615;BME280;63121;51.458;-0.110;2022-12-29T07:22:32;99735.63;;;11.12;63.14
74615;BME280;63121;51.458;-0.110;2022-12-29T07:24:58;99734.19;;;11.02;63.57
74615;BME280;63121;51.458;-0.110;2022-12-29T07:27:23;99750.41;;;11.07;63.23
74615;BME280;63121;51.458;-0.110;2022-12-29T07:29:48;99761.41;;;11.14;62.95
74615;BME280;63121;51.458;-0.110;2022-12-29T07:32:14;99756.31;;;11.11;63.32
74615;BME280;63121;51.458;-0.110;2022-12-29T07:34:39;99764.53;;;11.25;63.15
74615;BME280;63121;51.458;-0.110;2022-12-29T07:37:05;99773.34;;;11.18;63.09
74615;BME280;63121;51.458;-0.110;2022-12-29T07:39:30;99775.13;;;11.16;63.49
74615;BME280;63121;51.458;-0.110;2022-12-29T07:41:56;99786.25;;;10.88;63.90
74615;BME280;63121;51.458;-0.110;2022-12-29T07:44:21;99778.91;;;11.04;63.35
74615;BME280;63121;51.458;-0.110;2022-12-29T07:46:46;99786.03;;;11.26;62.87
74615;BME280;63121;51.458;-0.110;2022-12-29T07:49:12;99788.59;;;10.96;63.24
74615;BME280;63121;51.458;-0.110;2022-12-29T07:51:37;99796.28;;;10.99;62.75
74615;BME280;63121;51.458;-0.110;2022-12-29T07:54:02;99799.28;;;10.49;64.10
74615;BME280;63121;51.458;-0.110;2022-12-29T07:56:28;99807.28;;;10.73;63.29
74615;BME280;63121;51.458;-0.110;2022-12-29T07:58:53;99803.53;;;11.16;62.24
74615;BME280;63121;51.458;-0.110;2022-12-29T08:01:18;99807.06;;;11.13;62.35
74615;BME280;63121;51.458;-0.110;2022-12-29T08:03:44;99812.88;;;11.22;62.36
74615;BME280;63121;51.458;-0.110;2022-12-29T08:06:10;99803.25;;;10.95;62.82
74615;BME280;63121;51.458;-0.110;2022-12-29T08:08:36;99813.59;;;11.25;62.11
74615;BME280;63121;51.458;-0.110;2022-12-29T08:11:01;99818.22;;;11.45;61.59
74615;BME280;63121;51.458;-0.110;2022-12-29T08:13:26;99832.44;;;11.60;61.81
74615;BME280;63121;51.458;-0.110;2022-12-29T08:15:51;99833.28;;;11.29;62.13
74615;BME280;63121;51.458;-0.110;2022-12-29T08:18:17;99829.91;;;11.57;61.78
74615;BME280;63121;51.458;-0.110;2022-12-29T08:20:42;99833.63;;;11.48;62.29
74615;BME280;63121;51.458;-0.110;2022-12-29T08:23:07;99849.19;;;11.15;63.77
74615;BME280;63121;51.458;-0.110;2022-12-29T08:25:33;99849.72;;;11.86;61.69
74615;BME280;63121;51.458;-0.110;2022-12-29T08:27:58;99851.69;;;11.78;61.87
74615;BME280;63121;51.458;-0.110;2022-12-29T08:30:23;99861.44;;;11.99;60.75
74615;BME280;63121;51.458;-0.110;2022-12-29T08:32:49;99862.44;;;11.34;63.29
74615;BME280;63121;51.458;-0.110;2022-12-29T08:35:14;99862.31;;;11.39;63.28
74615;BME280;63121;51.458;-0.110;2022-12-29T08:37:39;99877.13;;;11.01;64.33
74615;BME280;63121;51.458;-0.110;2022-12-29T08:40:05;99879.00;;;11.58;62.82
74615;BME280;63121;51.458;-0.110;2022-12-29T08:42:31;99876.50;;;11.55;63.09
74615;BME280;63121;51.458;-0.110;2022-12-29T08:44:58;99886.38;;;11.41;63.92
74615;BME280;63121;51.458;-0.110;2022-12-29T08:47:24;99894.75;;;12.10;61.69
74615;BME280;63121;51.458;-0.110;2022-12-29T08:49:49;99888.69;;;11.50;63.19
74615;BME280;63121;51.458;-0.110;2022-12-29T08:52:15;99894.13;;;11.41;63.37
74615;BME280;63121;51.458;-0.110;2022-12-29T08:54:40;99898.22;;;11.48;63.39
74615;BME280;63121;51.458;-0.110;2022-12-29T08:57:05;99893.75;;;11.24;64.33
74615;BME280;63121;51.458;-0.110;2022-12-29T08:59:31;99897.59;;;11.40;64.28
74615;BME280;63121;51.458;-0.110;2022-12-29T09:01:56;99908.69;;;11.44;63.79
74615;BME280;63121;51.458;-0.110;2022-12-29T09:04:21;99909.19;;;11.56;63.78
74615;BME280;63121;51.458;-0.110;2022-12-29T09:06:48;99917.19;;;11.16;64.17
74615;BME280;63121;51.458;-0.110;2022-12-29T09:09:14;99909.41;;;11.17;64.37
74615;BME280;63121;51.458;-0.110;2022-12-29T09:11:39;99909.53;;;11.44;63.79
74615;BME280;63121;51.458;-0.110;2022-12-29T09:14:05;99904.97;;;11.54;63.93
74615;BME280;63121;51.458;-0.110;2022-12-29T09:16:31;99903.59;;;11.72;62.82
74615;BME280;63121;51.458;-0.110;2022-12-29T09:18:56;99916.09;;;11.25;63.94
74615;BME280;63121;51.458;-0.110;2022-12-29T09:21:22;99928.66;;;11.38;63.24
74615;BME280;63121;51.458;-0.110;2022-12-29T09:23:48;99926.97;;;11.05;64.20
74615;BME280;63121;51.458;-0.110;2022-12-29T09:26:13;99916.88;;;11.28;64.24
74615;BME280;63121;51.458;-0.110;2022-12-29T09:28:38;99915.16;;;11.60;63.22
74615;BME280;63121;51.458;-0.110;2022-12-29T09:31:04;99919.56;;;11.55;63.07
74615;BME280;63121;51.458;-0.110;2022-12-29T09:33:29;99932.00;;;11.42;63.26
74615;BME280;63121;51.458;-0.110;2022-12-29T09:35:57;99931.00;;;10.81;64.88
74615;BME280;63121;51.458;-0.110;2022-12-29T09:38:24;99940.44;;;11.16;64.18
74615;BME280;63121;51.458;-0.110;2022-12-29T09:40:52;99942.91;;;11.53;63.06
74615;BME280;63121;51.458;-0.110;2022-12-29T09:43:43;99942.84;;;11.55;62.38
74615;BME280;63121;51.458;-0.110;2022-12-29T09:48:46;99964.28;;;11.26;63.49
74615;BME280;63121;51.458;-0.110;2022-12-29T09:51:18;99967.75;;;11.90;61.49
74615;BME280;63121;51.458;-0.110;2022-12-29T09:53:58;99976.66;;;11.47;62.29
74615;BME280;63121;51.458;-0.110;2022-12-29T09:56:26;99979.06;;;11.85;61.47
74615;BME280;63121;51.458;-0.110;2022-12-29T09:58:58;99992.91;;;11.84;61.00
74615;BME280;63121;51.458;-0.110;2022-12-29T10:01:34;99987.31;;;11.99;61.03
74615;BME280;63121;51.458;-0.110;2022-12-29T10:04:01;99999.75;;;12.16;60.13
74615;BME280;63121;51.458;-0.110;2022-12-29T10:06:45;99996.13;;;11.93;60.73
74615;BME280;63121;51.458;-0.110;2022-12-29T10:18:03;100022.88;;;11.59;61.00
74615;BME280;63121;51.458;-0.110;2022-12-29T10:20:55;100044.09;;;11.71;61.04
74615;BME280;63121;51.458;-0.110;2022-12-29T10:23:32;100038.75;;;12.10;59.46
74615;BME280;63121;51.458;-0.110;2022-12-29T10:26:01;100039.66;;;12.09;59.34
74615;BME280;63121;51.458;-0.110;2022-12-29T10:28:44;100042.88;;;12.47;58.59
74615;BME280;63121;51.458;-0.110;2022-12-29T10:31:20;100048.53;;;12.00;59.49
74615;BME280;63121;51.458;-0.110;2022-12-29T10:33:49;100050.88;;;11.75;60.10
74615;BME280;63121;51.458;-0.110;2022-12-29T10:36:27;100057.13;;;12.00;59.25
74615;BME280;63121;51.458;-0.110;2022-12-29T10:44:14;100073.81;;;12.20;58.71
74615;BME280;63121;51.458;-0.110;2022-12-29T10:46:42;100062.00;;;11.78;58.96
74615;BME280;63121;51.458;-0.110;2022-12-29T10:49:15;100075.38;;;11.62;58.89
74615;BME280;63121;51.458;-0.110;2022-12-29T10:51:43;100071.31;;;11.51;59.65
74615;BME280;63121;51.458;-0.110;2022-12-29T10:57:10;100069.34;;;11.95;58.05
74615;BME280;63121;51.458;-0.110;2022-12-29T10:59:37;100078.06;;;11.91;58.72
74615;BME280;63121;51.458;-0.110;2022-12-29T11:02:39;100076.41;;;11.89;58.52
74615;BME280;63121;51.458;-0.110;2022-12-29T11:07:50;100093.94;;;11.76;58.78
74615;BME280;63121;51.458;-0.110;2022-12-29T11:10:30;100092.59;;;12.27;58.37
74615;BME280;63121;51.458;-0.110;2022-12-29T11:13:04;100094.03;;;12.06;58.42
74615;BME280;63121;51.458;-0.110;2022-12-29T11:15:41;100099.50;;;11.95;58.62
74615;BME280;63121;51.458;-0.110;2022-12-29T11:18:34;100095.91;;;12.63;57.72
74615;BME280;63121;51.458;-0.110;2022-12-29T11:21:02;100100.50;;;12.22;58.39
74615;BME280;63121;51.458;-0.110;2022-12-29T11:23:40;100105.25;;;12.06;57.74
74615;BME280;63121;51.458;-0.110;2022-12-29T11:28:36;100103.81;;;12.27;57.16
74615;BME280;63121;51.458;-0.110;2022-12-29T11:31:04;100100.91;;;12.08;57.29
74615;BME280;63121;51.458;-0.110;2022-12-29T11:33:31;100109.19;;;11.88;57.10
74615;BME280;63121;51.458;-0.110;2022-12-29T11:36:10;100107.78;;;12.08;56.40
74615;BME280;63121;51.458;-0.110;2022-12-29T11:38:39;100105.00;;;12.15;56.23
74615;BME280;63121;51.458;-0.110;2022-12-29T11:41:11;100118.13;;;11.75;57.09
74615;BME280;63121;51.458;-0.110;2022-12-29T11:43:39;100117.94;;;12.47;55.86
74615;BME280;63121;51.458;-0.110;2022-12-29T11:46:06;100108.72;;;12.05;56.13
74615;BME280;63121;51.458;-0.110;2022-12-29T11:48:38;100117.81;;;12.51;55.15
74615;BME280;63121;51.458;-0.110;2022-12-29T11:51:04;100117.47;;;12.32;55.04
74615;BME280;63121;51.458;-0.110;2022-12-29T11:53:45;100114.41;;;11.85;56.60
74615;BME280;63121;51.458;-0.110;2022-12-29T11:56:17;100114.53;;;12.13;55.68
74615;BME280;63121;51.458;-0.110;2022-12-29T11:58:45;100124.47;;;11.97;55.47
74615;BME280;63121;51.458;-0.110;2022-12-29T12:03:44;100133.22;;;11.57;57.14
74615;BME280;63121;51.458;-0.110;2022-12-29T12:06:16;100121.88;;;11.97;55.42
74615;BME280;63121;51.458;-0.110;2022-12-29T12:08:48;100123.06;;;12.18;55.06
74615;BME280;63121;51.458;-0.110;2022-12-29T12:11:32;100130.91;;;12.14;54.89
74615;BME280;63121;51.458;-0.110;2022-12-29T12:14:16;100133.91;;;11.64;56.28
74615;BME280;63121;51.458;-0.110;2022-12-29T12:16:47;100134.13;;;12.22;55.27
74615;BME280;63121;51.458;-0.110;2022-12-29T12:22:28;100157.56;;;11.47;56.83
74615;BME280;63121;51.458;-0.110;2022-12-29T12:27:39;100159.25;;;11.48;55.62
74615;BME280;63121;51.458;-0.110;2022-12-29T12:30:23;100150.28;;;11.63;55.86
74615;BME280;63121;51.458;-0.110;2022-12-29T12:33:44;100151.31;;;11.93;54.69
74615;BME280;63121;51.458;-0.110;2022-12-29T12:38:54;100158.00;;;12.00;54.07
74615;BME280;63121;51.458;-0.110;2022-12-29T12:44:03;100152.03;;;12.31;53.40
74615;BME280;63121;51.458;-0.110;2022-12-29T12:47:03;100150.97;;;12.06;53.89
74615;BME280;63121;51.458;-0.110;2022-12-29T12:57:45;100145.03;;;12.65;52.25
74615;BME280;63121;51.458;-0.110;2022-12-29T13:00:18;100143.63;;;12.84;51.92
74615;BME280;63121;51.458;-0.110;2022-12-29T13:27:27;100159.09;;;12.86;51.68
74615;BME280;63121;51.458;-0.110;2022-12-29T13:30:09;100150.66;;;12.49;52.42
74615;BME280;63121;51.458;-0.110;2022-12-29T13:38:30;100153.97;;;11.89;52.62
74615;BME280;63121;51.458;-0.110;2022-12-29T13:41:07;100153.84;;;12.28;51.63
74615;BME280;63121;51.458;-0.110;2022-12-29T13:43:39;100154.88;;;12.52;51.49
74615;BME280;63121;51.458;-0.110;2022-12-29T13:46:24;100163.78;;;12.41;51.73
74615;BME280;63121;51.458;-0.110;2022-12-29T13:48:56;100162.25;;;12.67;51.16
74615;BME280;63121;51.458;-0.110;2022-12-29T13:51:23;100148.34;;;12.99;50.91
74615;BME280;63121;51.458;-0.110;2022-12-29T13:54:10;100157.41;;;13.13;50.90
74615;BME280;63121;51.458;-0.110;2022-12-29T14:01:59;100168.72;;;12.19;52.37
74615;BME280;63121;51.458;-0.110;2022-12-29T14:04:29;100179.84;;;12.23;51.21
74615;BME280;63121;51.458;-0.110;2022-12-29T14:07:11;100170.59;;;12.14;51.11
74615;BME280;63121;51.458;-0.110;2022-12-29T14:09:50;100169.41;;;12.26;50.71
74615;BME280;63121;51.458;-0.110;2022-12-29T14:12:42;100174.47;;;11.98;50.90
74615;BME280;63121;51.458;-0.110;2022-12-29T14:17:33;100171.53;;;12.43;50.53
74615;BME280;63121;51.458;-0.110;2022-12-29T14:19:59;100161.50;;;12.62;49.63
74615;BME280;63121;51.458;-0.110;2022-12-29T14:22:26;100172.63;;;12.34;49.88
74615;BME280;63121;51.458;-0.110;2022-12-29T14:24:52;100175.75;;;12.14;50.27
74615;BME280;63121;51.458;-0.110;2022-12-29T14:29:45;100188.16;;;12.34;49.93
74615;BME280;63121;51.458;-0.110;2022-12-29T14:34:46;100199.59;;;11.55;51.44
74615;BME280;63121;51.458;-0.110;2022-12-29T14:37:26;100199.22;;;11.35;51.10
74615;BME280;63121;51.458;-0.110;2022-12-29T14:42:39;100205.75;;;11.87;50.76
74615;BME280;63121;51.458;-0.110;2022-12-29T14:45:28;100198.84;;;12.22;50.38
74615;BME280;63121;51.458;-0.110;2022-12-29T14:47:55;100230.84;;;11.82;50.80
74615;BME280;63121;51.458;-0.110;2022-12-29T14:52:54;100213.28;;;11.96;50.62
74615;BME280;63121;51.458;-0.110;2022-12-29T14:58:06;100214.88;;;12.02;50.82
74615;BME280;63121;51.458;-0.110;2022-12-29T15:00:38;100212.63;;;11.88;51.53
74615;BME280;63121;51.458;-0.110;2022-12-29T15:03:53;100205.63;;;12.26;50.75
74615;BME280;63121;51.458;-0.110;2022-12-29T15:05:55;100217.16;;;12.14;50.30
74615;BME280;63121;51.458;-0.110;2022-12-29T15:08:24;100230.53;;;11.97;51.57
74615;BME280;63121;51.458;-0.110;2022-12-29T15:11:00;100225.34;;;11.97;50.54
74615;BME280;63121;51.458;-0.110;2022-12-29T15:13:38;100236.41;;;12.03;50.55
74615;BME280;63121;51.458;-0.110;2022-12-29T15:16:12;100240.34;;;11.82;50.23